createdAt,value
2023-04-15T00:01:23.853Z,82.58
2023-04-15T00:03:41.066Z,82.64
2023-04-15T00:05:58.273Z,82.78
2023-04-15T00:08:16.564Z,82.80
2023-04-15T00:10:33.663Z,83.08
2023-04-15T00:12:50.919Z,83.48
2023-04-15T00:15:08.226Z,83.75
2023-04-15T00:17:25.424Z,83.67
2023-04-15T00:19:42.514Z,84.14
2023-04-15T00:22:00.797Z,83.47
2023-04-15T00:24:18.098Z,83.67
2023-04-15T00:26:35.334Z,83.93
2023-04-15T00:28:52.312Z,84.21
2023-04-15T00:31:09.638Z,84.32
2023-04-15T00:33:26.752Z,84.52
2023-04-15T00:35:44.725Z,84.23
2023-04-15T00:38:02.038Z,84.33
2023-04-15T00:40:20.344Z,84.38
2023-04-15T00:42:37.673Z,84.31
2023-04-15T00:44:55.004Z,84.32
2023-04-15T00:47:12.315Z,84.19
2023-04-15T00:49:29.592Z,84.41
2023-04-15T00:51:46.873Z,84.94
2023-04-15T00:54:04.942Z,84.65
2023-04-15T00:56:22.178Z,84.39
2023-04-15T00:58:39.169Z,85.36
2023-04-15T01:00:56.094Z,85.14
2023-04-15T01:03:13.586Z,85.08
2023-04-15T01:05:30.663Z,84.92
2023-04-15T01:07:47.539Z,84.46
2023-04-15T01:10:04.821Z,84.77
2023-04-15T01:12:22.983Z,85.04
2023-04-15T01:14:39.988Z,84.43
2023-04-15T01:16:57.299Z,84.29
2023-04-15T01:19:14.187Z,84.52
2023-04-15T01:21:31.142Z,84.32
2023-04-15T01:23:48.167Z,84.56
2023-04-15T01:26:05.109Z,84.96
2023-04-15T01:28:21.996Z,85.10
2023-04-15T01:30:38.983Z,85.07
2023-04-15T01:32:56.378Z,84.98
2023-04-15T01:35:13.424Z,84.85
2023-04-15T01:37:30.380Z,85.09
2023-04-15T01:39:47.630Z,84.70
2023-04-15T01:42:04.862Z,84.79
2023-04-15T01:44:21.897Z,84.68
2023-04-15T01:46:39.231Z,85.06
2023-04-15T01:48:56.604Z,85.38
2023-04-15T01:51:13.565Z,85.15
2023-04-15T01:53:30.542Z,85.51
2023-04-15T01:55:47.537Z,85.11
2023-04-15T01:58:05.890Z,85.39
2023-04-15T02:00:22.806Z,85.43
2023-04-15T02:02:41.283Z,85.40
2023-04-15T02:04:58.905Z,85.47
2023-04-15T02:07:15.970Z,85.45
2023-04-15T02:09:32.979Z,85.74
2023-04-15T02:11:50.066Z,85.71
2023-04-15T02:14:06.925Z,85.92
2023-04-15T02:16:24.008Z,85.73
2023-04-15T02:18:41.228Z,85.88
2023-04-15T02:20:58.251Z,85.94
2023-04-15T02:23:15.320Z,85.79
2023-04-15T02:25:33.042Z,85.80
2023-04-15T02:27:52.515Z,86.27
2023-04-15T02:30:09.406Z,86.28
2023-04-15T02:32:26.396Z,86.23
2023-04-15T02:34:43.760Z,86.20
2023-04-15T02:37:02.820Z,86.56
2023-04-15T02:39:19.884Z,86.45
2023-04-15T02:41:37.136Z,86.16
2023-04-15T02:43:54.356Z,86.53
2023-04-15T02:46:11.677Z,86.32
2023-04-15T02:48:29.773Z,86.25
2023-04-15T02:50:46.828Z,86.22
2023-04-15T02:53:03.785Z,85.92
2023-04-15T02:55:20.783Z,85.44
2023-04-15T02:57:38.792Z,85.77
2023-04-15T02:59:55.796Z,86.26
2023-04-15T03:02:13.759Z,86.01
2023-04-15T03:04:30.931Z,86.18
2023-04-15T03:06:48.042Z,86.48
2023-04-15T03:09:05.102Z,86.30
2023-04-15T03:11:23.716Z,86.18
2023-04-15T03:13:40.768Z,86.68
2023-04-15T03:15:58.043Z,86.47
2023-04-15T03:18:16.111Z,86.83
2023-04-15T03:20:33.530Z,86.66
2023-04-15T03:22:50.583Z,86.91
2023-04-15T03:25:09.680Z,86.98
2023-04-15T03:27:26.722Z,87.33
2023-04-15T03:29:45.103Z,86.91
2023-04-15T03:32:02.402Z,86.85
2023-04-15T03:34:19.323Z,86.94
2023-04-15T03:36:36.585Z,86.66
2023-04-15T03:38:53.840Z,86.67
2023-04-15T03:41:11.172Z,86.50
2023-04-15T03:43:28.483Z,86.81
2023-04-15T03:45:45.751Z,86.30
2023-04-15T03:48:16.571Z,86.17
2023-04-15T03:50:34.601Z,86.63
2023-04-15T03:52:51.507Z,86.86
2023-04-15T03:55:08.464Z,86.92
2023-04-15T03:57:25.598Z,86.62
2023-04-15T03:59:42.533Z,86.56
2023-04-15T04:01:59.630Z,86.79
2023-04-15T04:04:17.009Z,86.97
2023-04-15T04:06:34.123Z,86.56
2023-04-15T04:08:51.144Z,87.08
2023-04-15T04:11:08.313Z,86.83
2023-04-15T04:13:25.313Z,87.35
2023-04-15T04:15:42.595Z,87.23
2023-04-15T04:17:59.626Z,87.02
2023-04-15T04:20:16.924Z,87.17
2023-04-15T04:22:34.143Z,86.59
2023-04-15T04:24:51.487Z,87.12
2023-04-15T04:27:08.310Z,87.36
2023-04-15T04:29:25.283Z,86.85
2023-04-15T04:31:42.595Z,86.78
2023-04-15T04:33:59.662Z,86.94
2023-04-15T04:36:16.556Z,87.34
2023-04-15T04:38:33.534Z,86.96
2023-04-15T04:40:50.796Z,86.70
2023-04-15T04:43:09.096Z,86.89
2023-04-15T04:45:26.121Z,86.94
2023-04-15T04:47:43.367Z,86.64
2023-04-15T04:50:00.381Z,87.01
2023-04-15T04:52:17.424Z,87.04
2023-04-15T04:54:34.649Z,86.73
2023-04-15T04:56:51.674Z,86.49
2023-04-15T04:59:08.730Z,86.41
2023-04-15T05:01:26.104Z,86.46
2023-04-15T05:03:43.303Z,86.26
2023-04-15T05:06:00.556Z,87.08
2023-04-15T05:08:17.496Z,87.20
2023-04-15T05:10:34.379Z,86.69
2023-04-15T05:12:51.348Z,86.90
2023-04-15T05:15:08.347Z,87.23
2023-04-15T05:17:25.380Z,87.50
2023-04-15T05:19:42.701Z,87.81
2023-04-15T05:21:59.959Z,87.58
2023-04-15T05:24:17.192Z,88.02
2023-04-15T05:26:34.177Z,88.10
2023-04-15T05:28:52.303Z,87.53
2023-04-15T05:31:09.585Z,87.42
2023-04-15T05:33:27.859Z,87.20
2023-04-15T05:35:45.108Z,87.38
2023-04-15T05:38:02.443Z,87.31
2023-04-15T05:40:19.333Z,86.90
2023-04-15T05:42:36.324Z,87.24
2023-04-15T05:44:53.507Z,87.19
2023-04-15T05:47:10.759Z,87.54
2023-04-15T05:49:27.939Z,87.34
2023-04-15T05:51:44.938Z,87.15
2023-04-15T05:54:02.268Z,87.25
2023-04-15T05:56:19.332Z,87.02
2023-04-15T05:58:36.619Z,87.16
2023-04-15T06:00:54.853Z,86.87
2023-04-15T06:03:12.196Z,86.84
2023-04-15T06:05:30.560Z,87.03
2023-04-15T06:07:48.617Z,86.91
2023-04-15T06:10:05.800Z,86.93
2023-04-15T06:12:22.842Z,86.96
2023-04-15T06:14:40.073Z,86.53
2023-04-15T06:16:57.303Z,86.17
2023-04-15T06:19:15.328Z,86.19
2023-04-15T06:21:33.688Z,86.61
2023-04-15T06:23:50.691Z,86.55
2023-04-15T06:26:07.676Z,86.70
2023-04-15T06:28:24.599Z,86.82
2023-04-15T06:30:41.630Z,86.38
2023-04-15T06:32:58.996Z,86.20
2023-04-15T06:35:15.959Z,86.22
2023-04-15T06:37:33.871Z,86.86
2023-04-15T06:39:51.109Z,86.04
2023-04-15T06:42:08.112Z,85.63
2023-04-15T06:44:25.404Z,85.45
2023-04-15T06:46:42.388Z,86.12
2023-04-15T06:48:59.490Z,85.46
2023-04-15T06:51:16.987Z,86.07
2023-04-15T06:53:34.201Z,85.88
2023-04-15T06:55:51.178Z,85.06
2023-04-15T06:58:08.224Z,84.44
2023-04-15T07:00:26.589Z,83.28
2023-04-15T07:02:43.645Z,83.53
2023-04-15T07:05:00.712Z,84.67
2023-04-15T07:07:17.610Z,84.04
2023-04-15T07:09:34.905Z,83.51
2023-04-15T07:11:52.865Z,83.23
2023-04-15T07:14:10.717Z,81.35
2023-04-15T07:16:29.793Z,81.10
2023-04-15T07:18:47.080Z,81.87
2023-04-15T07:21:04.283Z,79.94
2023-04-15T07:23:22.578Z,79.72
2023-04-15T07:25:39.882Z,80.79
2023-04-15T07:27:57.238Z,79.95
2023-04-15T07:30:14.466Z,79.44
2023-04-15T07:32:31.530Z,80.21
2023-04-15T07:34:49.515Z,79.96
2023-04-15T07:37:06.780Z,79.33
2023-04-15T07:39:24.713Z,78.95
2023-04-15T07:41:41.720Z,78.20
2023-04-15T07:43:59.021Z,77.55
2023-04-15T07:46:16.230Z,77.39
2023-04-15T07:48:34.907Z,77.05
2023-04-15T07:50:52.572Z,76.30
2023-04-15T07:53:09.556Z,75.57
2023-04-15T07:55:28.131Z,75.88
2023-04-15T07:57:45.360Z,72.48
2023-04-15T08:00:02.667Z,74.35
2023-04-15T08:02:19.833Z,72.88
2023-04-15T08:04:37.115Z,72.34
2023-04-15T08:06:55.546Z,71.53
2023-04-15T08:09:12.565Z,71.96
2023-04-15T08:11:29.790Z,72.48
2023-04-15T08:13:47.096Z,70.30
2023-04-15T08:16:04.051Z,70.45
2023-04-15T08:18:21.105Z,68.67
2023-04-15T08:20:38.152Z,68.59
2023-04-15T08:22:55.160Z,68.86
2023-04-15T08:25:13.453Z,66.60
2023-04-15T08:27:30.471Z,66.14
2023-04-15T08:29:47.741Z,66.74
2023-04-15T08:32:05.006Z,65.88
2023-04-15T08:34:22.309Z,65.84
2023-04-15T08:36:39.565Z,64.79
2023-04-15T08:38:57.518Z,64.19
2023-04-15T08:41:14.514Z,64.66
2023-04-15T08:43:31.501Z,64.01
2023-04-15T08:45:48.536Z,64.08
2023-04-15T08:48:05.555Z,63.54
2023-04-15T08:50:22.663Z,62.62
2023-04-15T08:52:39.634Z,61.67
2023-04-15T08:54:56.624Z,61.02
2023-04-15T08:57:13.674Z,59.82
2023-04-15T08:59:31.012Z,57.94
2023-04-15T09:01:48.384Z,56.29
2023-04-15T09:04:05.744Z,55.61
2023-04-15T09:06:22.727Z,53.24
2023-04-15T09:08:41.093Z,53.77
2023-04-15T09:10:58.099Z,55.37
2023-04-15T09:13:15.157Z,54.54
2023-04-15T09:15:32.453Z,53.74
2023-04-15T09:17:49.582Z,53.21
2023-04-15T09:20:06.773Z,54.39
2023-04-15T09:22:24.802Z,52.12
2023-04-15T09:24:42.103Z,50.27
2023-04-15T09:26:59.433Z,51.39
2023-04-15T09:29:16.402Z,51.85
2023-04-15T09:31:33.597Z,50.34
2023-04-15T09:33:50.658Z,47.77
2023-04-15T09:36:08.011Z,45.76
2023-04-15T09:38:24.993Z,47.65
2023-04-15T09:40:42.187Z,46.13
2023-04-15T09:42:59.083Z,48.00
2023-04-15T09:45:16.339Z,46.66
2023-04-15T09:47:33.294Z,47.90
2023-04-15T09:49:51.401Z,48.88
2023-04-15T09:52:08.438Z,47.07
2023-04-15T09:54:26.357Z,45.63
2023-04-15T09:56:43.384Z,47.55
2023-04-15T09:59:00.246Z,49.32
2023-04-15T10:01:17.270Z,48.87
2023-04-15T10:03:34.826Z,46.59
2023-04-15T10:05:51.932Z,48.46
2023-04-15T10:08:08.949Z,47.19
2023-04-15T10:10:25.883Z,48.98
2023-04-15T10:12:42.912Z,49.58
2023-04-15T10:15:00.161Z,48.45
2023-04-15T10:17:17.131Z,49.29
2023-04-15T10:19:34.378Z,49.27
2023-04-15T10:21:51.669Z,50.10
2023-04-15T10:24:09.685Z,49.71
2023-04-15T10:26:26.843Z,50.58
2023-04-15T10:28:44.108Z,50.23
2023-04-15T10:31:01.348Z,51.69
2023-04-15T10:33:18.573Z,49.99
2023-04-15T10:35:35.608Z,50.21
2023-04-15T10:37:53.965Z,51.05
2023-04-15T10:40:11.057Z,51.11
2023-04-15T10:42:28.068Z,50.39
2023-04-15T10:44:45.036Z,51.35
2023-04-15T10:47:02.074Z,51.33
2023-04-15T10:49:19.376Z,49.35
2023-04-15T10:51:36.349Z,52.19
2023-04-15T10:53:53.388Z,49.99
2023-04-15T10:56:10.394Z,50.80
2023-04-15T10:58:27.711Z,50.04
2023-04-15T11:00:44.645Z,49.35
2023-04-15T11:03:01.851Z,49.29
2023-04-15T11:05:19.023Z,49.95
2023-04-15T11:07:36.417Z,47.81
2023-04-15T11:09:53.541Z,45.50
2023-04-15T11:12:10.888Z,46.41
2023-04-15T11:14:28.284Z,45.99
2023-04-15T11:16:45.383Z,43.99
2023-04-15T11:19:02.469Z,45.16
2023-04-15T11:21:19.404Z,44.18
2023-04-15T11:23:36.374Z,43.71
2023-04-15T11:25:54.419Z,43.20
2023-04-15T11:28:11.564Z,42.57
2023-04-15T11:30:28.850Z,45.42
2023-04-15T11:32:45.868Z,44.48
2023-04-15T11:35:04.220Z,45.22
2023-04-15T11:37:21.533Z,43.83
2023-04-15T11:39:38.460Z,45.22
2023-04-15T11:41:55.477Z,43.62
2023-04-15T11:44:12.774Z,42.78
2023-04-15T11:46:29.994Z,42.73
2023-04-15T11:48:47.354Z,44.65
2023-04-15T11:51:04.345Z,42.87
2023-04-15T11:53:21.661Z,41.82
2023-04-15T11:55:38.962Z,41.93
2023-04-15T11:57:56.954Z,41.00
2023-04-15T12:00:14.146Z,41.35
2023-04-15T12:02:31.344Z,40.94
2023-04-15T12:04:48.871Z,40.18
2023-04-15T12:07:06.268Z,39.64
2023-04-15T12:09:23.305Z,39.90
2023-04-15T12:11:40.403Z,39.86
2023-04-15T12:13:57.485Z,40.75
2023-04-15T12:16:14.895Z,41.65
2023-04-15T12:18:31.830Z,39.12
2023-04-15T12:20:49.149Z,40.72
2023-04-15T12:23:07.196Z,39.78
2023-04-15T12:25:24.490Z,39.61
2023-04-15T12:27:41.726Z,41.41
2023-04-15T12:29:58.701Z,37.47
2023-04-15T12:32:15.748Z,39.15
2023-04-15T12:34:32.632Z,39.72
2023-04-15T12:36:49.543Z,39.47
2023-04-15T12:39:06.633Z,40.48
2023-04-15T12:41:23.538Z,40.31
2023-04-15T12:43:40.510Z,41.60
2023-04-15T12:45:57.459Z,40.53
2023-04-15T12:48:14.541Z,40.45
2023-04-15T12:50:31.641Z,39.69
2023-04-15T12:52:48.476Z,39.03
2023-04-15T12:55:05.360Z,39.55
2023-04-15T12:57:22.292Z,40.65
2023-04-15T12:59:39.247Z,41.00
2023-04-15T13:01:57.403Z,41.21
2023-04-15T13:04:15.016Z,42.22
2023-04-15T13:06:32.123Z,41.73
2023-04-15T13:08:57.891Z,40.59
2023-04-15T13:11:15.807Z,38.44
2023-04-15T13:13:32.892Z,39.20
2023-04-15T13:15:49.973Z,39.20
2023-04-15T13:18:07.964Z,40.09
2023-04-15T13:20:25.190Z,41.54
2023-04-15T13:22:42.212Z,41.83
2023-04-15T13:24:59.316Z,41.65
2023-04-15T13:27:16.284Z,42.23
2023-04-15T13:29:33.508Z,41.38
2023-04-15T13:31:50.573Z,41.51
2023-04-15T13:34:07.948Z,42.32
2023-04-15T13:36:25.413Z,43.72
2023-04-15T13:38:42.619Z,41.09
2023-04-15T13:40:59.983Z,42.46
2023-04-15T13:43:18.363Z,43.66
2023-04-15T13:45:35.495Z,44.32
2023-04-15T13:47:53.793Z,44.03
2023-04-15T13:50:10.747Z,43.67
2023-04-15T13:52:28.590Z,44.14
2023-04-15T13:54:48.577Z,44.49
2023-04-15T13:57:25.788Z,43.40
2023-04-15T13:59:42.789Z,43.67
2023-04-15T14:01:59.948Z,45.00
2023-04-15T14:04:17.440Z,45.15
2023-04-15T14:06:34.942Z,45.42
2023-04-15T14:08:51.944Z,46.41
2023-04-15T14:11:09.281Z,46.50
2023-04-15T14:13:26.184Z,47.52
2023-04-15T14:15:43.176Z,46.74
2023-04-15T14:18:00.430Z,46.80
2023-04-15T14:20:17.556Z,47.82
2023-04-15T14:22:34.830Z,47.20
2023-04-15T14:24:52.837Z,48.25
2023-04-15T14:27:10.054Z,47.76
2023-04-15T14:29:27.352Z,48.87
2023-04-15T14:31:44.325Z,49.99
2023-04-15T14:34:21.577Z,50.19
2023-04-15T14:36:40.321Z,51.49
2023-04-15T14:38:57.457Z,50.89
2023-04-15T14:41:14.484Z,52.52
2023-04-15T14:43:31.436Z,52.51
2023-04-15T14:45:48.499Z,53.91
2023-04-15T14:48:05.460Z,54.30
2023-04-15T14:50:23.480Z,54.27
2023-04-15T14:52:40.802Z,56.31
2023-04-15T14:54:58.017Z,57.19
2023-04-15T14:57:15.330Z,57.97
2023-04-15T14:59:32.355Z,56.17
2023-04-15T15:01:49.452Z,57.78
2023-04-15T15:04:06.676Z,55.95
2023-04-15T15:06:23.816Z,57.17
2023-04-15T15:08:41.083Z,56.83
2023-04-15T15:10:58.346Z,56.98
2023-04-15T15:13:15.345Z,55.93
2023-04-15T15:15:32.308Z,56.73
2023-04-15T15:17:49.396Z,57.84
2023-04-15T15:20:07.650Z,57.78
2023-04-15T15:22:24.854Z,56.98
2023-04-15T15:24:42.850Z,59.42
2023-04-15T15:26:59.827Z,57.20
2023-04-15T15:29:17.100Z,58.61
2023-04-15T15:31:34.349Z,59.10
2023-04-15T15:33:52.090Z,58.49
2023-04-15T15:36:09.096Z,58.93
2023-04-15T15:38:26.146Z,59.06
2023-04-15T15:40:43.167Z,59.48
2023-04-15T15:43:00.457Z,60.24
2023-04-15T15:45:17.730Z,61.31
2023-04-15T15:47:34.729Z,61.24
2023-04-15T15:49:51.673Z,62.62
2023-04-15T15:52:08.749Z,62.81
2023-04-15T15:54:26.439Z,62.42
2023-04-15T15:56:43.706Z,62.59
2023-04-15T15:59:00.981Z,62.50
2023-04-15T16:01:20.323Z,61.44
2023-04-15T16:03:37.668Z,63.28
2023-04-15T16:05:55.095Z,60.61
2023-04-15T16:08:12.138Z,61.64
2023-04-15T16:10:29.425Z,62.20
2023-04-15T16:12:46.356Z,62.29
2023-04-15T16:15:03.428Z,61.61
2023-04-15T16:17:20.770Z,62.65
2023-04-15T16:19:38.055Z,63.18
2023-04-15T16:21:55.300Z,63.38
2023-04-15T16:24:12.589Z,65.24
2023-04-15T16:26:30.896Z,64.85
2023-04-15T16:28:47.969Z,66.06
2023-04-15T16:31:05.213Z,65.71
2023-04-15T16:33:22.172Z,67.72
2023-04-15T16:35:39.104Z,67.83
2023-04-15T16:37:56.056Z,67.70
2023-04-15T16:40:13.242Z,67.50
2023-04-15T16:42:30.459Z,67.72
2023-04-15T16:44:47.639Z,68.32
2023-04-15T16:47:04.998Z,68.49
2023-04-15T16:49:22.268Z,67.72
2023-04-15T16:51:39.192Z,68.66
2023-04-15T16:53:56.154Z,69.05
2023-04-15T16:56:13.104Z,70.32
2023-04-15T16:58:30.083Z,69.92
2023-04-15T17:00:47.189Z,70.72
2023-04-15T17:03:04.319Z,72.72
2023-04-15T17:05:21.353Z,71.69
2023-04-15T17:07:38.348Z,72.52
2023-04-15T17:09:55.450Z,71.99
2023-04-15T17:12:12.469Z,73.09
2023-04-15T17:14:29.781Z,72.70
2023-04-15T17:16:47.116Z,73.47
2023-04-15T17:19:04.432Z,73.29
2023-04-15T17:21:22.632Z,73.88
2023-04-15T17:23:39.921Z,74.47
2023-04-15T17:25:56.855Z,75.07
2023-04-15T17:28:13.898Z,75.03
2023-04-15T17:30:31.121Z,74.69
2023-04-15T17:32:48.445Z,75.24
2023-04-15T17:35:05.491Z,74.69
2023-04-15T17:37:22.441Z,76.38
2023-04-15T17:39:39.878Z,75.23
2023-04-15T17:41:58.098Z,76.04
2023-04-15T17:44:15.182Z,76.64
2023-04-15T17:46:33.497Z,76.66
2023-04-15T17:48:50.749Z,75.62
2023-04-15T17:51:07.829Z,75.98
2023-04-15T17:53:25.069Z,76.33
2023-04-15T17:55:42.128Z,78.02
2023-04-15T17:57:59.179Z,77.53
2023-04-15T18:00:16.585Z,77.53
2023-04-15T18:02:36.996Z,77.83
2023-04-15T18:04:54.484Z,78.12
2023-04-15T18:07:11.419Z,77.48
2023-04-15T18:09:28.498Z,77.94
2023-04-15T18:11:45.552Z,78.10
2023-04-15T18:14:02.705Z,78.93
2023-04-15T18:16:20.127Z,78.05
2023-04-15T18:18:37.212Z,79.29
2023-04-15T18:20:54.575Z,78.64
2023-04-15T18:23:12.634Z,78.83
2023-04-15T18:25:29.568Z,79.67
2023-04-15T18:27:46.710Z,78.61
2023-04-15T18:30:04.021Z,78.96
2023-04-15T18:32:22.365Z,80.17
2023-04-15T18:34:40.679Z,79.05
2023-04-15T18:36:57.767Z,79.78
2023-04-15T18:39:14.720Z,79.39
2023-04-15T18:41:31.948Z,79.09
2023-04-15T18:43:48.862Z,78.33
2023-04-15T18:46:07.164Z,79.64
2023-04-15T18:48:24.096Z,78.22
2023-04-15T18:50:41.382Z,78.39
2023-04-15T18:52:58.356Z,79.13
2023-04-15T18:55:17.174Z,78.98
2023-04-15T18:57:36.189Z,79.12
2023-04-15T18:59:54.769Z,79.40
2023-04-15T19:02:11.848Z,79.42
2023-04-15T19:04:29.552Z,77.75
2023-04-15T19:06:46.933Z,79.06
2023-04-15T19:09:04.308Z,77.97
2023-04-15T19:11:21.731Z,77.84
2023-04-15T19:13:39.133Z,78.77
2023-04-15T19:15:57.249Z,76.83
2023-04-15T19:18:14.599Z,78.48
2023-04-15T19:20:33.940Z,77.55
2023-04-15T19:22:52.818Z,77.41
2023-04-15T19:25:10.111Z,78.69
2023-04-15T19:27:27.038Z,77.50
2023-04-15T19:29:43.967Z,77.75
2023-04-15T19:32:01.283Z,77.16
2023-04-15T19:34:19.632Z,78.62
2023-04-15T19:36:36.715Z,78.25
2023-04-15T19:38:53.603Z,76.91
2023-04-15T19:41:11.681Z,77.32
2023-04-15T19:43:28.956Z,77.15
2023-04-15T19:45:46.254Z,78.12
2023-04-15T19:48:03.204Z,77.93
2023-04-15T19:50:20.324Z,78.14
2023-04-15T19:52:37.495Z,77.47
2023-04-15T19:54:54.587Z,77.31
2023-04-15T19:57:11.600Z,78.09
2023-04-15T19:59:28.631Z,77.75
2023-04-15T20:01:45.724Z,77.37
2023-04-15T20:04:02.864Z,78.14
2023-04-15T20:06:19.880Z,79.52
2023-04-15T20:08:37.245Z,78.45
2023-04-15T20:10:55.270Z,78.38
2023-04-15T20:13:13.544Z,78.18
2023-04-15T20:15:31.489Z,79.13
2023-04-15T20:17:48.608Z,78.09
2023-04-15T20:20:05.706Z,79.08
2023-04-15T20:22:22.728Z,78.44
2023-04-15T20:24:40.031Z,77.41
2023-04-15T20:26:58.315Z,77.75
2023-04-15T20:29:15.279Z,76.98
2023-04-15T20:31:32.394Z,77.62
2023-04-15T20:33:49.695Z,78.19
2023-04-15T20:36:06.669Z,78.80
2023-04-15T20:38:23.959Z,79.12
2023-04-15T20:40:41.754Z,77.78
2023-04-15T20:42:59.822Z,79.40
2023-04-15T20:45:17.130Z,79.22
2023-04-15T20:47:34.517Z,79.33
2023-04-15T20:49:52.788Z,78.46
2023-04-15T20:52:09.822Z,78.18
2023-04-15T20:54:26.751Z,78.78
2023-04-15T20:56:43.702Z,78.29
2023-04-15T20:59:00.635Z,77.57
2023-04-15T21:01:17.767Z,77.79
2023-04-15T21:03:35.003Z,79.05
2023-04-15T21:05:52.455Z,78.01
2023-04-15T21:08:09.693Z,77.88
2023-04-15T21:10:26.915Z,78.04
2023-04-15T21:12:43.974Z,79.23
2023-04-15T21:15:01.079Z,79.54
2023-04-15T21:17:18.026Z,78.93
2023-04-15T21:19:35.074Z,78.88
2023-04-15T21:21:52.146Z,78.66
2023-04-15T21:24:09.161Z,78.88
2023-04-15T21:26:27.515Z,79.27
2023-04-15T21:28:44.781Z,77.94
2023-04-15T21:31:01.883Z,78.39
2023-04-15T21:33:19.908Z,79.43
2023-04-15T21:35:37.033Z,78.11
2023-04-15T21:37:53.990Z,78.21
2023-04-15T21:40:11.346Z,78.54
2023-04-15T21:42:28.317Z,77.77
2023-04-15T21:44:45.652Z,77.66
2023-04-15T21:47:02.714Z,77.57
2023-04-15T21:49:19.965Z,77.75
2023-04-15T21:51:37.121Z,77.89
2023-04-15T21:53:55.356Z,77.31
2023-04-15T21:56:12.272Z,77.25
2023-04-15T21:58:29.519Z,78.31
2023-04-15T22:00:47.765Z,79.18
2023-04-15T22:03:06.178Z,78.72
2023-04-15T22:05:23.172Z,78.34
2023-04-15T22:07:41.181Z,78.97
2023-04-15T22:09:58.160Z,77.26
2023-04-15T22:12:15.391Z,77.79
2023-04-15T22:14:32.405Z,77.90
2023-04-15T22:16:49.732Z,78.65
2023-04-15T22:19:07.047Z,79.48
2023-04-15T22:21:24.487Z,79.87
2023-04-15T22:23:42.458Z,78.65
2023-04-15T22:25:59.417Z,78.65
2023-04-15T22:28:16.320Z,79.39
2023-04-15T22:30:33.213Z,79.15
2023-04-15T22:32:50.316Z,78.81
2023-04-15T22:35:07.307Z,78.25
2023-04-15T22:37:24.326Z,80.66
2023-04-15T22:39:42.530Z,78.93
2023-04-15T22:41:59.570Z,80.15
2023-04-15T22:44:16.662Z,80.05
2023-04-15T22:46:33.690Z,79.45
2023-04-15T22:48:50.590Z,79.80
2023-04-15T22:51:07.865Z,80.01
2023-04-15T22:53:24.887Z,80.00
2023-04-15T22:55:42.865Z,78.80
2023-04-15T22:57:59.956Z,79.86
2023-04-15T23:00:17.164Z,79.60
2023-04-15T23:02:35.831Z,79.21
2023-04-15T23:04:53.329Z,78.75
2023-04-15T23:07:10.371Z,78.01
2023-04-15T23:09:27.358Z,77.99
2023-04-15T23:11:44.445Z,77.80
2023-04-15T23:14:01.430Z,78.27
2023-04-15T23:16:18.819Z,77.80
2023-04-15T23:18:36.214Z,78.01
2023-04-15T23:20:53.487Z,78.81
2023-04-15T23:23:10.335Z,78.28
2023-04-15T23:25:27.651Z,78.23
2023-04-15T23:27:44.670Z,78.66
2023-04-15T23:30:01.615Z,78.36
2023-04-15T23:32:19.651Z,78.13
2023-04-15T23:34:36.591Z,78.71
2023-04-15T23:36:53.835Z,79.43
2023-04-15T23:39:12.229Z,79.33
2023-04-15T23:41:29.327Z,79.21
2023-04-15T23:43:46.329Z,78.75
2023-04-15T23:46:03.279Z,79.15
2023-04-15T23:48:20.578Z,79.40
2023-04-15T23:50:38.713Z,77.92
2023-04-15T23:52:55.623Z,79.37
2023-04-15T23:55:12.771Z,78.48
2023-04-15T23:57:31.057Z,78.48
2023-04-15T23:59:48.184Z,79.33
